createdAt,value
2019-05-21T00:03:27.741Z,983.93
2019-05-21T00:06:57.906Z,983.99
2019-05-21T00:10:27.997Z,984.17
2019-05-21T00:13:58.079Z,984.2
2019-05-21T00:17:28.049Z,984.2
2019-05-21T00:20:58.137Z,984.38
2019-05-21T00:24:28.281Z,984.88
2019-05-21T00:43:09.416Z,986.44
2019-05-21T00:46:39.564Z,986.43
2019-05-21T00:50:10.105Z,986.78
2019-05-21T00:53:40.298Z,986.87
2019-05-21T00:57:10.354Z,986.71
2019-05-21T01:00:15.934Z,986.48
2019-05-21T01:03:46.219Z,985.85
2019-05-21T01:07:16.356Z,985.36
2019-05-21T01:10:46.482Z,984.97
2019-05-21T01:14:16.538Z,984.82
2019-05-21T01:17:49.151Z,984.85
2019-05-21T01:21:19.458Z,984.66
2019-05-21T01:24:49.513Z,984.66
2019-05-21T01:28:19.639Z,984.61
2019-05-21T01:31:49.812Z,984.74
2019-05-21T01:35:19.944Z,984.82
2019-05-21T01:38:50.045Z,984.61
2019-05-21T01:42:20.224Z,984.62
2019-05-21T01:45:50.259Z,984.87
2019-05-21T01:49:20.446Z,984.97
2019-05-21T01:52:50.408Z,984.93
2019-05-21T01:56:20.518Z,984.98
2019-05-21T01:59:50.508Z,985.2
2019-05-21T02:03:20.636Z,985.18
2019-05-21T02:06:50.793Z,984.77
2019-05-21T02:10:20.865Z,985
2019-05-21T02:13:51.028Z,985.17
2019-05-21T02:17:21.160Z,985.57
2019-05-21T02:20:51.279Z,985.75
2019-05-21T02:24:21.373Z,985.9
2019-05-21T02:27:51.413Z,986.38
2019-05-21T02:31:21.431Z,986.66
2019-05-21T02:34:51.622Z,986.96
2019-05-21T02:38:21.779Z,987.22
2019-05-21T02:41:51.841Z,987.27
2019-05-21T02:45:22.026Z,987.1
2019-05-21T02:48:52.120Z,987.09
2019-05-21T04:04:06.584Z,990.29
2019-05-21T04:07:36.856Z,990.66
2019-05-21T04:11:07.025Z,990.97
2019-05-21T04:14:42.083Z,991.25
2019-05-21T04:18:16.642Z,991.81
2019-05-21T04:21:46.753Z,992.3
2019-05-21T04:25:16.841Z,992.25
2019-05-21T04:28:46.973Z,992.87
2019-05-21T04:32:16.995Z,993.48
2019-05-21T04:35:47.048Z,994.07
2019-05-21T04:39:17.089Z,994.5
2019-05-21T04:42:47.135Z,994.62
2019-05-21T04:46:17.142Z,995.03
2019-05-21T04:49:47.265Z,995.29
2019-05-21T04:53:17.283Z,995.33
2019-05-21T04:56:47.229Z,994.86
2019-05-21T05:00:16.197Z,994.9
2019-05-21T05:03:46.311Z,994.53
2019-05-21T05:07:27.489Z,994.47
2019-05-21T05:10:58.891Z,993.89
2019-05-21T05:14:28.998Z,993.66
2019-05-21T05:17:58.949Z,994.81
2019-05-21T05:21:29.088Z,995.85
2019-05-21T05:24:59.267Z,996.24
2019-05-21T05:28:29.408Z,996.43
2019-05-21T05:31:59.508Z,996.25
2019-05-21T05:35:29.511Z,996.71
2019-05-21T05:38:59.580Z,996.41
2019-05-21T05:42:29.607Z,996.87
2019-05-21T05:45:59.766Z,997.37
2019-05-21T05:49:36.540Z,996.89
2019-05-21T05:53:06.628Z,995.71
2019-05-21T05:56:36.606Z,995.04
2019-05-21T06:00:07.710Z,995.48
2019-05-21T06:03:37.770Z,996.37
2019-05-21T06:07:07.896Z,996.68
2019-05-21T06:10:40.139Z,996.31
2019-05-21T06:14:10.495Z,996.71
2019-05-21T06:17:40.619Z,996.62
2019-05-21T06:21:10.673Z,996.85
2019-05-21T06:24:40.668Z,996.72
2019-05-21T06:28:10.848Z,996.74
2019-05-21T06:31:41.167Z,997.15
2019-05-21T06:35:12.259Z,997.08
2019-05-21T06:38:42.373Z,997.58
2019-05-21T06:42:12.447Z,998.52
2019-05-21T06:45:42.597Z,998.97
2019-05-21T06:49:12.633Z,999.53
2019-05-21T06:52:42.809Z,999.82
2019-05-21T06:56:13.028Z,999.63
2019-05-21T06:59:43.037Z,1000.33
2019-05-21T07:00:16.565Z,1000.27
2019-05-21T07:03:46.657Z,1000
2019-05-21T07:07:16.793Z,1000.3
2019-05-21T07:10:46.982Z,1000.73
2019-05-21T07:14:17.212Z,1001.32
2019-05-21T07:17:47.246Z,1002.21
2019-05-21T07:21:17.304Z,1001.69
2019-05-21T07:24:47.451Z,1001.61
2019-05-21T07:28:17.499Z,1001.05
2019-05-21T07:31:47.550Z,1000.77
2019-05-21T07:35:17.674Z,1000.46
2019-05-21T07:38:53.375Z,1000.39
2019-05-21T07:42:24.311Z,1000.67
2019-05-21T07:45:54.351Z,1001.56
2019-05-21T07:49:24.496Z,1002.26
2019-05-21T07:52:54.563Z,1002.66
2019-05-21T07:56:24.709Z,1003.6
2019-05-21T07:59:54.772Z,1003.84
2019-05-21T08:03:24.880Z,1004.62
2019-05-21T08:06:55.051Z,1004.85
2019-05-21T08:10:25.122Z,1005.49
2019-05-21T08:13:55.521Z,1005.87
2019-05-21T08:17:25.619Z,1006.38
2019-05-21T08:20:55.678Z,1006.86
2019-05-21T08:24:25.713Z,1007.99
2019-05-21T08:27:55.787Z,1008.66
2019-05-21T08:31:25.892Z,1008.23
2019-05-21T08:34:55.931Z,1009.05
2019-05-21T08:38:26.038Z,1009.47
2019-05-21T08:41:56.170Z,1009.34
2019-05-21T08:45:26.110Z,1009.26
2019-05-21T08:48:56.154Z,1009.95
2019-05-21T08:52:26.354Z,1010.57
2019-05-21T08:55:56.410Z,1010.81
2019-05-21T08:59:26.457Z,1011.32
2019-05-21T09:00:20.737Z,1011.34
2019-05-21T09:03:50.850Z,1011.52
2019-05-21T09:07:21.100Z,1011.66
2019-05-21T09:10:51.241Z,1012.64
2019-05-21T09:14:21.407Z,1013.39
2019-05-21T09:17:51.409Z,1014.05
2019-05-21T09:21:21.463Z,1014.17
2019-05-21T09:24:51.479Z,1014.57
2019-05-21T09:28:21.530Z,1015.26
2019-05-21T09:31:51.482Z,1015.94
2019-05-21T09:35:21.556Z,1016.68
2019-05-21T09:38:51.603Z,1018.25
2019-05-21T09:42:21.750Z,1018.96
2019-05-21T09:45:51.806Z,1018.83
2019-05-21T09:49:21.951Z,1019.75
2019-05-21T09:52:52.090Z,1020.5
2019-05-21T09:56:37.935Z,1020.08
2019-05-21T10:00:14.380Z,1020.36
2019-05-21T10:03:46.942Z,1022
2019-05-21T10:07:17.085Z,1023.31
2019-05-21T10:10:47.218Z,1023.83
2019-05-21T10:14:17.451Z,1024.23
2019-05-21T10:17:47.546Z,1025.47
2019-05-21T10:21:17.690Z,1027.07
2019-05-21T10:24:47.835Z,1028.3
2019-05-21T10:28:18.068Z,1029.4
2019-05-21T10:31:48.235Z,1030.2
2019-05-21T10:35:18.330Z,1030.04
2019-05-21T10:38:48.484Z,1027.69
2019-05-21T10:42:18.522Z,1027.91
2019-05-21T10:45:48.649Z,1029.02
2019-05-21T10:49:18.717Z,1028.98
2019-05-21T10:52:48.875Z,1026.51
2019-05-21T10:56:19.079Z,1024.6
2019-05-21T10:59:49.099Z,1023.8
2019-05-21T11:00:22.957Z,1023.89
2019-05-21T11:04:15.135Z,1024.81
2019-05-21T11:07:45.281Z,1026.47
2019-05-21T11:11:15.299Z,1028.96
2019-05-21T11:14:45.339Z,1029.06
2019-05-21T11:18:15.521Z,1028.93
2019-05-21T11:21:45.623Z,1027.15
2019-05-21T11:25:15.775Z,1025.86
2019-05-21T11:28:45.908Z,1027.48
2019-05-21T11:32:15.993Z,1028.53
2019-05-21T11:35:46.235Z,1028.05
2019-05-21T11:39:16.396Z,1027.73
2019-05-21T11:42:46.575Z,1027.68
2019-05-21T11:46:16.661Z,1026.19
2019-05-21T11:49:46.750Z,1026.27
2019-05-21T11:53:16.795Z,1029.14
2019-05-21T11:56:46.916Z,1028.69
2019-05-21T12:00:21.681Z,1029.15
2019-05-21T12:03:51.899Z,1028.29
2019-05-21T12:07:22.036Z,1023.97
2019-05-21T12:10:52.088Z,1019.92
2019-05-21T12:14:22.189Z,1017.35
2019-05-21T12:17:52.274Z,1015.99
2019-05-21T12:21:22.445Z,1013.34
2019-05-21T12:24:52.498Z,1012.74
2019-05-21T12:28:22.578Z,1012.82
2019-05-21T12:31:52.617Z,1013.44
2019-05-21T12:35:22.698Z,1012.36
2019-05-21T12:38:53.226Z,1012.47
2019-05-21T12:42:23.356Z,1010.75
2019-05-21T12:45:53.538Z,1008.89
2019-05-21T12:49:23.774Z,1005.45
2019-05-21T12:52:53.930Z,1004.92
2019-05-21T12:56:24.058Z,1004.39
2019-05-21T12:59:54.177Z,1000.37
2019-05-21T13:00:17.244Z,1000.34
2019-05-21T13:03:47.337Z,999.2
2019-05-21T13:07:17.495Z,1001.38
2019-05-21T13:10:47.546Z,1007.95
2019-05-21T13:14:18.903Z,1014.79
2019-05-21T13:17:49.211Z,1013.74
2019-05-21T13:21:19.307Z,1017.06
2019-05-21T13:24:49.423Z,1018.34
2019-05-21T13:28:19.417Z,1025.6
2019-05-21T13:31:49.513Z,1032.26
2019-05-21T13:35:19.743Z,1035.97
2019-05-21T13:38:49.907Z,1044.54
2019-05-21T13:42:20.047Z,1051.67
2019-05-21T13:45:50.033Z,1058.2
2019-05-21T13:49:20.113Z,1065.03
2019-05-21T13:52:50.292Z,1067.03
2019-05-21T13:56:20.557Z,1062.58
2019-05-21T13:59:50.752Z,1059.37
2019-05-21T14:03:20.957Z,1059.25
2019-05-21T14:06:51.079Z,1060.36
2019-05-21T14:10:22.061Z,1061.3
2019-05-21T14:13:52.534Z,1063.21
2019-05-21T14:17:22.747Z,1064.28
2019-05-21T14:20:52.904Z,1065.3
2019-05-21T14:24:23.021Z,1063.14
2019-05-21T14:27:53.046Z,1056.23
2019-05-21T14:31:23.184Z,1056.11
2019-05-21T14:35:01.184Z,1051.46
2019-05-21T14:38:32.187Z,1055.26
2019-05-21T14:42:02.362Z,1059.65
2019-05-21T14:45:34.193Z,1065.06
2019-05-21T14:49:04.790Z,1063.57
2019-05-21T14:52:34.948Z,1063.26
2019-05-21T14:56:05.118Z,1063.98
2019-05-21T14:59:35.236Z,1063.43
2019-05-21T15:00:25.426Z,1063.4
2019-05-21T15:03:55.591Z,1058.44
2019-05-21T15:07:25.886Z,1054.85
2019-05-21T15:10:56.066Z,1049.88
2019-05-21T15:14:26.425Z,1047.36
2019-05-21T15:17:56.487Z,1049.51
2019-05-21T15:21:34.164Z,1053.47
2019-05-21T15:25:04.593Z,1049.07
2019-05-21T15:28:34.719Z,1046.26
2019-05-21T15:32:04.906Z,1050.94
2019-05-21T15:35:35.004Z,1050
2019-05-21T15:39:05.843Z,1047.78
2019-05-21T15:42:35.916Z,1045.81
2019-05-21T15:46:06.054Z,1044.05
2019-05-21T15:49:37.115Z,1046.46
2019-05-21T15:53:07.276Z,1044
2019-05-21T15:56:37.393Z,1046.93
2019-05-21T16:00:08.994Z,1048.7
2019-05-21T16:03:39.079Z,1047.23
2019-05-21T16:07:09.317Z,1047.16
2019-05-21T16:10:39.493Z,1045.89
2019-05-21T16:14:09.566Z,1043.33
2019-05-21T16:17:39.793Z,1039.99
2019-05-21T16:21:09.863Z,1029.66
2019-05-21T16:24:39.987Z,1017.94
2019-05-21T16:28:10.146Z,1011.86
2019-05-21T16:31:40.284Z,1008.16
2019-05-21T16:35:10.583Z,1005.87
2019-05-21T16:38:40.705Z,1004.73
2019-05-21T16:42:10.846Z,1004.38
2019-05-21T16:45:40.936Z,1003.93
2019-05-21T16:49:11.005Z,1003.23
2019-05-21T16:52:41.117Z,1002.91
2019-05-21T16:56:11.373Z,1002.08
2019-05-21T16:59:41.686Z,1002.01
2019-05-21T17:00:18.386Z,1002.04
2019-05-21T17:03:59.412Z,1002.07
2019-05-21T17:07:30.249Z,999.41
2019-05-21T17:11:00.298Z,994.34
2019-05-21T17:14:30.422Z,990.25
2019-05-21T17:18:00.586Z,986.32
2019-05-21T17:21:30.714Z,983.27
2019-05-21T17:25:00.778Z,981.96
2019-05-21T17:28:30.756Z,980.75
2019-05-21T17:32:00.695Z,980.26
2019-05-21T17:35:30.781Z,979.49
2019-05-21T17:39:00.846Z,978.91
2019-05-21T17:42:30.938Z,978.27
2019-05-21T17:46:00.959Z,978.22
2019-05-21T17:49:31.068Z,977.36
2019-05-21T17:53:01.319Z,977.16
2019-05-21T17:56:31.569Z,977.07
2019-05-21T18:00:02.150Z,976.92
2019-05-21T18:03:32.321Z,977.11
2019-05-21T18:07:03.387Z,977.84
2019-05-21T18:10:33.626Z,977.75
2019-05-21T18:14:04.191Z,977.79
2019-05-21T18:17:35.129Z,977.62
2019-05-21T18:21:05.815Z,977.8
2019-05-21T18:24:36.179Z,977.33
2019-05-21T18:28:06.387Z,977.3
2019-05-21T18:31:36.744Z,977.58
2019-05-21T18:35:07.338Z,977.86
2019-05-21T18:38:37.487Z,977.78
2019-05-21T18:42:20.979Z,977.69
2019-05-21T18:45:52.513Z,977.87
2019-05-21T18:49:22.723Z,978.45
2019-05-21T18:52:52.740Z,979.06
2019-05-21T18:56:22.777Z,980.33
2019-05-21T18:59:52.826Z,981.38
2019-05-21T19:00:16.161Z,981.5
2019-05-21T19:03:46.422Z,982.41
2019-05-21T19:07:16.694Z,983.27
2019-05-21T19:10:46.828Z,984.69
2019-05-21T19:14:16.880Z,985.84
2019-05-21T19:17:46.989Z,986.48
2019-05-21T19:21:17.053Z,986.35
2019-05-21T19:24:47.160Z,986.48
2019-05-21T19:28:17.373Z,985.93
2019-05-21T19:31:49.372Z,983.94
2019-05-21T19:35:19.769Z,982.3
2019-05-21T19:38:49.998Z,982.09
2019-05-21T19:42:20.008Z,982.24
2019-05-21T19:45:50.131Z,982.07
2019-05-21T19:49:20.166Z,981.72
2019-05-21T19:52:50.313Z,981.1
2019-05-21T19:56:20.379Z,981.15
2019-05-21T19:59:50.456Z,981.7
2019-05-21T20:03:20.708Z,982.19
2019-05-21T20:06:50.686Z,981.86
2019-05-21T20:10:21.094Z,981.16
2019-05-21T20:13:51.274Z,979.94
2019-05-21T20:17:22.166Z,979.14
2019-05-21T20:20:52.546Z,977.73
2019-05-21T20:24:23.149Z,977.85
2019-05-21T20:27:53.555Z,978.39
2019-05-21T20:31:24.164Z,979.65
2019-05-21T20:34:54.511Z,980.78
2019-05-21T20:38:27.475Z,982.05
2019-05-21T20:41:58.084Z,982.85
2019-05-21T20:45:29.280Z,983.03
2019-05-21T20:48:59.816Z,983.34
2019-05-21T20:52:29.994Z,983.01
2019-05-21T20:56:00.153Z,981.91
2019-05-21T20:59:30.243Z,980.46
2019-05-21T21:00:21.782Z,980.04
2019-05-21T21:03:52.759Z,979.56
2019-05-21T21:07:23.249Z,978.06
2019-05-21T21:10:53.267Z,975.94
2019-05-21T21:14:26.582Z,975.08
2019-05-21T21:17:57.121Z,974.24
2019-05-21T21:21:27.331Z,973.87
2019-05-21T21:24:57.565Z,974.23
2019-05-21T21:28:27.766Z,974.77
2019-05-21T21:31:57.950Z,975.2
2019-05-21T21:35:28.890Z,975.57
2019-05-21T21:39:00.035Z,975.77
2019-05-21T21:42:30.234Z,975.77
2019-05-21T21:46:00.469Z,975.67
2019-05-21T21:49:30.944Z,975.68
2019-05-21T21:53:01.128Z,975.59
2019-05-21T21:56:31.197Z,975.46
2019-05-21T22:00:41.122Z,975.71
2019-05-21T22:04:12.754Z,975.8
2019-05-21T22:07:43.786Z,975.51
2019-05-21T22:11:14.244Z,975.61
2019-05-21T22:14:52.462Z,975.43
2019-05-21T22:18:24.294Z,975.88
2019-05-21T22:21:55.541Z,975.83
2019-05-21T22:25:25.745Z,975.62
2019-05-21T22:28:55.922Z,975.5
2019-05-21T22:32:26.371Z,975.29
2019-05-21T22:35:56.513Z,975.32
2019-05-21T22:39:29.985Z,975.32
2019-05-21T22:43:00.004Z,975.18
2019-05-21T22:46:30.222Z,974.85
2019-05-21T22:50:00.269Z,974.9
2019-05-21T22:53:30.419Z,974.93
2019-05-21T22:57:00.668Z,975.02
2019-05-21T23:00:15.981Z,974.95
2019-05-21T23:03:46.165Z,974.84
2019-05-21T23:07:16.189Z,974.95
2019-05-21T23:10:46.332Z,974.87
2019-05-21T23:14:16.467Z,974.88
2019-05-21T23:17:46.726Z,974.73
2019-05-21T23:21:19.578Z,974.6
2019-05-21T23:24:50.075Z,974.47
2019-05-21T23:28:20.490Z,974.25
2019-05-21T23:31:50.798Z,974.67
2019-05-21T23:35:22.704Z,974.84
2019-05-21T23:38:52.883Z,974.81
2019-05-21T23:42:29.504Z,974.95
2019-05-21T23:46:00.582Z,975.17
2019-05-21T23:49:30.692Z,975.32
2019-05-21T23:53:02.041Z,975.6
2019-05-21T23:56:32.101Z,975.55
